createdAt,value
2023-05-19T00:00:59.076Z,22.40
2023-05-19T00:03:27.706Z,22.40
2023-05-19T00:05:57.436Z,22.30
2023-05-19T00:08:25.636Z,22.40
2023-05-19T00:10:54.147Z,22.30
2023-05-19T00:13:22.080Z,22.30
2023-05-19T00:15:51.352Z,22.30
2023-05-19T00:18:19.626Z,22.20
2023-05-19T00:20:48.264Z,22.20
2023-05-19T00:23:17.780Z,22.20
2023-05-19T00:25:45.966Z,22.20
2023-05-19T00:28:14.254Z,22.10
2023-05-19T00:30:42.384Z,22.10
2023-05-19T00:33:10.709Z,22.10
2023-05-19T00:35:40.673Z,22.00
2023-05-19T00:38:08.841Z,22.00
2023-05-19T00:40:38.757Z,22.00
2023-05-19T00:43:08.532Z,22.00
2023-05-19T00:45:36.588Z,22.00
2023-05-19T00:48:04.832Z,21.90
2023-05-19T00:50:33.129Z,21.90
2023-05-19T00:53:01.405Z,21.90
2023-05-19T00:55:30.155Z,21.80
2023-05-19T00:57:59.697Z,21.80
2023-05-19T01:00:27.707Z,21.80
2023-05-19T01:02:56.261Z,21.80
2023-05-19T01:05:24.366Z,21.70
2023-05-19T01:07:53.697Z,21.70
2023-05-19T01:10:22.093Z,21.70
2023-05-19T01:12:50.677Z,21.70
2023-05-19T01:15:20.659Z,21.60
2023-05-19T01:17:51.885Z,21.60
2023-05-19T01:20:22.966Z,21.60
2023-05-19T01:23:02.990Z,21.60
2023-05-19T01:25:44.235Z,21.60
2023-05-19T01:28:53.974Z,21.50
2023-05-19T01:31:24.939Z,21.50
2023-05-19T01:33:53.932Z,21.50
2023-05-19T01:36:23.095Z,21.50
2023-05-19T01:38:52.269Z,21.40
2023-05-19T01:41:20.880Z,21.40
2023-05-19T01:43:49.108Z,21.40
2023-05-19T01:46:17.117Z,21.40
2023-05-19T01:48:46.836Z,21.30
2023-05-19T01:51:14.901Z,21.30
2023-05-19T01:53:42.766Z,21.30
2023-05-19T01:56:10.959Z,21.30
2023-05-19T01:58:41.257Z,21.30
2023-05-19T02:01:21.154Z,21.30
2023-05-19T02:04:03.518Z,21.20
2023-05-19T02:06:34.066Z,21.30
2023-05-19T02:09:04.905Z,21.20
2023-05-19T02:11:37.954Z,21.20
2023-05-19T02:14:10.221Z,21.10
2023-05-19T02:16:38.490Z,21.10
2023-05-19T02:19:08.128Z,21.10
2023-05-19T02:21:36.369Z,21.00
2023-05-19T02:24:05.243Z,21.00
2023-05-19T02:26:33.236Z,21.00
2023-05-19T02:29:01.304Z,21.00
2023-05-19T02:31:29.426Z,20.90
2023-05-19T02:33:57.437Z,20.90
2023-05-19T02:36:28.283Z,20.90
2023-05-19T02:38:56.287Z,20.90
2023-05-19T02:41:24.212Z,20.90
2023-05-19T02:43:52.221Z,20.90
2023-05-19T02:46:20.313Z,20.90
2023-05-19T02:48:48.849Z,20.90
2023-05-19T02:51:16.882Z,20.80
2023-05-19T02:53:46.391Z,20.80
2023-05-19T02:56:14.493Z,20.80
2023-05-19T02:58:44.477Z,20.70
2023-05-19T03:01:12.662Z,20.70
2023-05-19T03:03:40.822Z,20.70
2023-05-19T03:06:09.640Z,20.70
2023-05-19T03:08:39.397Z,20.70
2023-05-19T03:11:11.247Z,20.60
2023-05-19T03:13:39.701Z,20.60
2023-05-19T03:16:08.377Z,20.60
2023-05-19T03:18:36.440Z,20.60
2023-05-19T03:21:05.264Z,20.60
2023-05-19T03:23:33.318Z,20.60
2023-05-19T03:26:01.392Z,20.50
2023-05-19T03:28:30.918Z,20.50
2023-05-19T03:30:59.048Z,20.50
2023-05-19T03:33:28.232Z,20.50
2023-05-19T03:35:57.270Z,20.50
2023-05-19T03:38:25.362Z,20.40
2023-05-19T03:40:54.026Z,20.40
2023-05-19T03:43:22.002Z,20.40
2023-05-19T03:45:51.540Z,20.40
2023-05-19T03:48:21.176Z,20.40
2023-05-19T03:50:50.579Z,20.40
2023-05-19T03:53:18.988Z,20.40
2023-05-19T03:55:47.588Z,20.40
2023-05-19T03:58:16.435Z,20.30
2023-05-19T04:00:44.452Z,20.30
2023-05-19T04:03:14.142Z,20.30
2023-05-19T04:05:42.852Z,20.30
2023-05-19T04:08:10.927Z,20.30
2023-05-19T04:10:38.986Z,20.20
2023-05-19T04:13:07.072Z,20.20
2023-05-19T04:15:35.167Z,20.20
2023-05-19T04:18:03.359Z,20.20
2023-05-19T04:20:32.820Z,20.20
2023-05-19T04:23:00.796Z,20.20
2023-05-19T04:25:28.955Z,20.20
2023-05-19T04:27:57.903Z,20.20
2023-05-19T04:30:26.172Z,20.20
2023-05-19T04:32:54.703Z,20.20
2023-05-19T04:35:22.987Z,20.10
2023-05-19T04:37:54.410Z,20.10
2023-05-19T04:40:23.882Z,20.10
2023-05-19T04:42:52.378Z,20.10
2023-05-19T04:45:20.543Z,20.10
2023-05-19T04:47:49.254Z,20.10
2023-05-19T04:50:17.401Z,20.10
2023-05-19T04:52:46.499Z,20.10
2023-05-19T04:55:16.055Z,20.10
2023-05-19T04:57:44.270Z,20.10
2023-05-19T05:00:14.827Z,20.10
2023-05-19T05:02:43.649Z,20.20
2023-05-19T05:05:12.426Z,20.20
2023-05-19T05:07:40.474Z,20.10
2023-05-19T05:10:09.848Z,20.20
2023-05-19T05:12:40.036Z,20.20
2023-05-19T05:15:09.786Z,20.20
2023-05-19T05:17:38.256Z,20.20
2023-05-19T05:20:07.563Z,20.20
2023-05-19T05:22:36.917Z,20.20
2023-05-19T05:25:05.821Z,20.20
2023-05-19T05:27:34.141Z,20.20
2023-05-19T05:30:03.527Z,20.20
2023-05-19T05:32:32.078Z,20.20
2023-05-19T05:35:00.227Z,20.20
2023-05-19T05:37:28.354Z,20.20
2023-05-19T05:39:56.392Z,20.20
2023-05-19T05:42:24.411Z,20.30
2023-05-19T05:44:52.482Z,20.20
2023-05-19T05:47:22.600Z,20.30
2023-05-19T05:49:53.367Z,20.30
2023-05-19T05:52:21.840Z,20.30
2023-05-19T05:54:50.295Z,20.30
2023-05-19T05:57:18.826Z,20.30
2023-05-19T05:59:47.358Z,20.30
2023-05-19T06:02:15.566Z,20.30
2023-05-19T06:04:45.247Z,20.40
2023-05-19T06:07:13.800Z,20.40
2023-05-19T06:09:41.680Z,20.40
2023-05-19T06:12:09.981Z,20.50
2023-05-19T06:14:38.129Z,20.50
2023-05-19T06:17:06.796Z,20.50
2023-05-19T06:19:34.870Z,20.50
2023-05-19T06:22:04.571Z,20.50
2023-05-19T06:24:32.665Z,20.60
2023-05-19T06:27:01.155Z,20.60
2023-05-19T06:29:29.314Z,20.70
2023-05-19T06:31:57.439Z,20.70
2023-05-19T06:34:25.805Z,20.70
2023-05-19T06:36:53.773Z,20.80
2023-05-19T06:39:23.747Z,20.80
2023-05-19T06:41:51.909Z,20.80
2023-05-19T06:44:21.150Z,20.90
2023-05-19T06:46:49.407Z,20.90
2023-05-19T06:49:17.488Z,21.00
2023-05-19T06:51:45.689Z,21.00
2023-05-19T06:54:16.572Z,21.10
2023-05-19T06:56:46.132Z,21.20
2023-05-19T06:59:14.942Z,21.20
2023-05-19T07:01:42.974Z,21.30
2023-05-19T07:04:11.433Z,21.30
2023-05-19T07:06:41.995Z,21.40
2023-05-19T07:09:10.153Z,21.50
2023-05-19T07:11:38.490Z,21.50
2023-05-19T07:14:08.365Z,21.60
2023-05-19T07:16:36.482Z,21.70
2023-05-19T07:19:04.698Z,21.80
2023-05-19T07:21:33.079Z,21.90
2023-05-19T07:24:01.238Z,21.90
2023-05-19T07:26:29.822Z,22.00
2023-05-19T07:28:58.004Z,22.10
2023-05-19T07:31:27.507Z,22.10
2023-05-19T07:33:55.607Z,22.20
2023-05-19T07:36:24.088Z,22.30
2023-05-19T07:38:52.187Z,22.40
2023-05-19T07:41:20.325Z,22.60
2023-05-19T07:43:48.401Z,22.70
2023-05-19T07:46:16.438Z,22.80
2023-05-19T07:48:46.464Z,22.90
2023-05-19T07:51:16.180Z,23.10
2023-05-19T07:53:44.318Z,23.20
2023-05-19T07:56:12.427Z,23.40
2023-05-19T07:58:40.557Z,23.60
2023-05-19T08:01:08.604Z,23.70
2023-05-19T08:03:36.862Z,23.90
2023-05-19T08:06:06.687Z,24.00
2023-05-19T08:08:34.858Z,24.10
2023-05-19T08:11:04.480Z,24.30
2023-05-19T08:13:32.667Z,24.50
2023-05-19T08:16:00.820Z,24.60
2023-05-19T08:18:28.706Z,24.80
2023-05-19T08:20:56.697Z,24.90
2023-05-19T08:23:26.119Z,25.10
2023-05-19T08:25:54.213Z,25.20
2023-05-19T08:28:22.871Z,25.40
2023-05-19T08:30:52.355Z,25.50
2023-05-19T08:33:22.069Z,25.70
2023-05-19T08:35:50.192Z,25.90
2023-05-19T08:38:18.306Z,26.00
2023-05-19T08:40:47.941Z,26.20
2023-05-19T08:43:15.864Z,26.40
2023-05-19T08:45:45.046Z,26.60
2023-05-19T08:48:13.692Z,26.70
2023-05-19T08:50:42.615Z,26.90
2023-05-19T08:53:31.409Z,27.10
2023-05-19T08:56:04.242Z,27.30
2023-05-19T08:58:32.463Z,27.50
2023-05-19T09:01:00.615Z,27.70
2023-05-19T09:03:29.146Z,27.80
2023-05-19T09:05:57.541Z,28.00
2023-05-19T09:08:25.531Z,28.20
2023-05-19T09:10:53.585Z,28.30
2023-05-19T09:13:23.273Z,28.50
2023-05-19T09:15:51.653Z,28.70
2023-05-19T09:18:20.228Z,28.90
2023-05-19T09:20:48.436Z,29.00
2023-05-19T09:23:23.180Z,29.30
2023-05-19T09:25:51.623Z,29.40
2023-05-19T09:28:26.817Z,29.60
2023-05-19T09:31:02.117Z,29.80
2023-05-19T09:33:32.211Z,30.00
2023-05-19T09:36:01.125Z,30.10
2023-05-19T09:38:29.467Z,30.30
2023-05-19T09:40:58.464Z,30.50
2023-05-19T09:44:15.516Z,30.70
2023-05-19T09:46:50.464Z,30.90
2023-05-19T09:49:22.669Z,31.10
2023-05-19T09:51:56.898Z,31.20
2023-05-19T09:54:29.531Z,31.40
2023-05-19T09:57:02.172Z,31.60
2023-05-19T09:59:33.648Z,31.80
2023-05-19T10:02:03.011Z,32.00
2023-05-19T10:04:31.552Z,32.10
2023-05-19T10:07:00.923Z,32.30
2023-05-19T10:09:29.925Z,32.50
2023-05-19T10:11:59.201Z,32.70
2023-05-19T10:14:37.610Z,32.70
2023-05-19T10:17:06.213Z,32.70
2023-05-19T10:19:34.474Z,32.70
2023-05-19T10:22:04.974Z,32.90
2023-05-19T10:24:33.012Z,33.10
2023-05-19T10:30:52.597Z,33.30
2023-05-19T10:33:21.501Z,33.50
2023-05-19T10:36:12.212Z,33.50
2023-05-19T10:38:43.872Z,33.60
2023-05-19T10:41:15.326Z,33.60
2023-05-19T10:44:00.884Z,33.80
2023-05-19T10:46:30.496Z,33.70
2023-05-19T10:48:58.875Z,32.60
2023-05-19T10:51:31.503Z,31.00
2023-05-19T10:53:59.990Z,29.80
2023-05-19T10:56:32.966Z,28.80
2023-05-19T10:59:01.098Z,28.20
2023-05-19T11:01:34.547Z,28.70
2023-05-19T11:04:06.862Z,29.30
2023-05-19T11:06:35.807Z,29.80
2023-05-19T11:09:11.445Z,30.00
2023-05-19T11:11:49.225Z,30.20
2023-05-19T11:14:18.964Z,30.30
2023-05-19T11:16:49.707Z,30.50
2023-05-19T11:19:21.635Z,30.60
2023-05-19T11:21:50.662Z,30.70
2023-05-19T11:24:37.774Z,30.70
2023-05-19T11:27:19.740Z,30.90
2023-05-19T11:29:48.400Z,31.00
2023-05-19T11:32:17.646Z,31.10
2023-05-19T11:34:45.862Z,31.00
2023-05-19T11:37:13.865Z,31.10
2023-05-19T11:39:41.996Z,31.40
2023-05-19T11:42:11.080Z,31.60
2023-05-19T11:44:41.102Z,31.80
2023-05-19T11:47:09.528Z,31.70
2023-05-19T11:49:38.677Z,31.60
2023-05-19T11:52:07.196Z,31.80
2023-05-19T11:54:36.658Z,32.00
2023-05-19T11:57:05.018Z,32.30
2023-05-19T11:59:35.609Z,32.30
2023-05-19T12:02:04.766Z,32.50
2023-05-19T12:04:32.893Z,32.50
2023-05-19T12:07:02.593Z,32.70
2023-05-19T12:09:30.618Z,32.90
2023-05-19T12:11:58.634Z,33.10
2023-05-19T12:14:27.522Z,33.40
2023-05-19T12:16:55.960Z,33.50
2023-05-19T12:19:25.984Z,33.70
2023-05-19T12:21:54.207Z,33.60
2023-05-19T12:24:23.556Z,33.50
2023-05-19T12:26:51.502Z,33.30
2023-05-19T12:29:19.499Z,33.40
2023-05-19T12:31:48.071Z,33.60
2023-05-19T12:34:16.513Z,33.70
2023-05-19T12:36:44.625Z,33.70
2023-05-19T12:39:12.870Z,33.70
2023-05-19T12:41:42.405Z,33.70
2023-05-19T12:44:16.297Z,34.00
2023-05-19T12:46:45.636Z,33.60
2023-05-19T12:49:13.624Z,33.40
2023-05-19T12:51:41.545Z,33.30
2023-05-19T12:54:10.555Z,33.10
2023-05-19T12:56:38.521Z,32.90
2023-05-19T12:59:07.986Z,32.70
2023-05-19T13:01:37.819Z,32.80
2023-05-19T13:04:06.647Z,33.00
2023-05-19T13:06:34.737Z,33.00
2023-05-19T13:09:02.669Z,33.00
2023-05-19T13:11:30.777Z,33.20
2023-05-19T13:13:58.781Z,33.40
2023-05-19T13:16:29.794Z,33.60
2023-05-19T13:18:57.869Z,33.70
2023-05-19T13:21:25.970Z,33.70
2023-05-19T13:23:54.607Z,33.60
2023-05-19T13:26:23.600Z,33.70
2023-05-19T13:28:51.691Z,33.50
2023-05-19T13:31:20.097Z,33.30
2023-05-19T13:33:49.720Z,33.10
2023-05-19T13:36:17.926Z,33.00
2023-05-19T13:38:45.964Z,33.00
2023-05-19T13:41:15.933Z,33.30
2023-05-19T13:43:44.095Z,33.50
2023-05-19T13:46:12.187Z,33.60
2023-05-19T13:48:40.383Z,33.50
2023-05-19T13:51:09.980Z,33.10
2023-05-19T13:53:39.385Z,32.80
2023-05-19T13:56:07.851Z,32.50
2023-05-19T13:58:35.903Z,32.50
2023-05-19T14:01:04.784Z,32.40
2023-05-19T14:03:32.925Z,32.20
2023-05-19T14:06:00.999Z,32.30
2023-05-19T14:08:32.926Z,32.30
2023-05-19T14:11:07.837Z,32.40
2023-05-19T14:13:39.601Z,32.50
2023-05-19T14:16:10.044Z,32.50
2023-05-19T14:18:38.110Z,32.60
2023-05-19T14:21:06.880Z,32.70
2023-05-19T14:23:36.419Z,32.70
2023-05-19T14:26:05.094Z,32.50
2023-05-19T14:28:33.138Z,32.30
2023-05-19T14:31:01.641Z,32.10
2023-05-19T14:33:32.734Z,32.10
2023-05-19T14:36:03.230Z,32.20
2023-05-19T14:38:31.322Z,32.30
2023-05-19T14:41:00.896Z,32.30
2023-05-19T14:43:31.497Z,32.30
2023-05-19T14:45:59.511Z,32.10
2023-05-19T14:48:28.066Z,32.00
2023-05-19T14:50:58.488Z,31.70
2023-05-19T14:53:29.790Z,31.60
2023-05-19T14:55:58.521Z,31.50
2023-05-19T14:58:29.375Z,31.20
2023-05-19T15:01:00.038Z,30.80
2023-05-19T15:03:30.895Z,30.30
2023-05-19T15:05:59.550Z,30.00
2023-05-19T15:08:33.075Z,29.90
2023-05-19T15:11:01.809Z,29.90
2023-05-19T15:13:31.798Z,29.80
2023-05-19T15:16:15.391Z,29.80
2023-05-19T15:18:44.923Z,29.70
2023-05-19T15:21:13.050Z,29.70
2023-05-19T15:23:43.395Z,29.50
2023-05-19T15:26:19.110Z,29.60
2023-05-19T15:28:56.208Z,29.60
2023-05-19T15:31:39.469Z,29.70
2023-05-19T15:34:10.276Z,29.80
2023-05-19T15:36:40.929Z,29.80
2023-05-19T15:39:13.762Z,29.80
2023-05-19T15:41:42.330Z,29.80
2023-05-19T15:44:15.748Z,29.80
2023-05-19T15:46:44.029Z,29.80
2023-05-19T15:49:12.965Z,29.80
2023-05-19T15:51:41.568Z,29.90
2023-05-19T15:54:12.028Z,29.90
2023-05-19T15:56:40.610Z,29.90
2023-05-19T15:59:08.877Z,29.90
2023-05-19T16:01:38.861Z,29.90
2023-05-19T16:04:09.639Z,29.80
2023-05-19T16:06:37.834Z,29.80
2023-05-19T16:09:06.211Z,29.80
2023-05-19T16:11:36.499Z,29.90
2023-05-19T16:14:05.151Z,29.80
2023-05-19T16:16:33.568Z,29.80
2023-05-19T16:19:03.337Z,29.80
2023-05-19T16:21:31.711Z,29.80
2023-05-19T16:23:59.972Z,29.70
2023-05-19T16:26:29.236Z,29.70
2023-05-19T16:28:57.137Z,29.70
2023-05-19T16:31:25.085Z,29.70
2023-05-19T16:33:53.437Z,29.60
2023-05-19T16:36:24.296Z,29.50
2023-05-19T16:38:53.397Z,29.40
2023-05-19T16:41:22.108Z,29.40
2023-05-19T16:43:50.139Z,29.40
2023-05-19T16:46:18.630Z,29.30
2023-05-19T16:48:46.716Z,29.20
2023-05-19T16:51:14.919Z,29.20
2023-05-19T16:53:44.502Z,29.20
2023-05-19T16:56:12.350Z,29.20
2023-05-19T16:58:40.219Z,29.10
2023-05-19T17:01:09.931Z,29.10
2023-05-19T17:03:38.064Z,29.00
2023-05-19T17:06:06.219Z,29.00
2023-05-19T17:08:34.167Z,28.90
2023-05-19T17:11:03.766Z,28.90
2023-05-19T17:13:33.683Z,28.90
2023-05-19T17:16:02.071Z,28.90
2023-05-19T17:18:30.505Z,28.80
2023-05-19T17:20:59.253Z,28.70
2023-05-19T17:23:27.395Z,28.60
2023-05-19T17:25:55.789Z,28.60
2023-05-19T17:28:25.313Z,28.50
2023-05-19T17:30:53.357Z,28.40
2023-05-19T17:33:21.344Z,28.40
2023-05-19T17:35:49.275Z,28.30
2023-05-19T17:38:17.280Z,28.20
2023-05-19T17:40:45.240Z,28.20
2023-05-19T17:43:13.649Z,28.10
2023-05-19T17:45:43.062Z,28.00
2023-05-19T17:48:12.025Z,28.00
2023-05-19T17:50:39.954Z,28.00
2023-05-19T17:53:08.480Z,28.00
2023-05-19T17:55:37.197Z,28.00
2023-05-19T17:58:05.652Z,27.90
2023-05-19T18:00:34.236Z,27.90
2023-05-19T18:03:06.374Z,27.90
2023-05-19T18:05:34.750Z,27.80
2023-05-19T18:08:06.966Z,27.80
2023-05-19T18:10:36.458Z,27.90
2023-05-19T18:13:05.209Z,27.90
2023-05-19T18:15:33.267Z,27.80
2023-05-19T18:18:01.709Z,27.70
2023-05-19T18:20:31.361Z,27.70
2023-05-19T18:22:59.664Z,27.70
2023-05-19T18:25:27.816Z,27.70
2023-05-19T18:27:56.512Z,27.70
2023-05-19T18:30:24.382Z,27.70
2023-05-19T18:32:52.952Z,27.50
2023-05-19T18:35:21.353Z,27.30
2023-05-19T18:37:51.563Z,27.30
2023-05-19T18:40:19.740Z,27.40
2023-05-19T18:42:48.153Z,27.30
2023-05-19T18:45:16.423Z,27.20
2023-05-19T18:47:44.528Z,27.00
2023-05-19T18:50:13.100Z,26.90
2023-05-19T18:52:41.215Z,26.90
2023-05-19T18:55:11.245Z,26.80
2023-05-19T18:57:39.139Z,26.50
2023-05-19T19:00:08.517Z,26.30
2023-05-19T19:02:36.561Z,26.20
2023-05-19T19:05:09.353Z,25.90
2023-05-19T19:07:41.170Z,25.80
2023-05-19T19:10:11.007Z,25.40
2023-05-19T19:12:39.155Z,25.30
2023-05-19T19:15:08.228Z,25.50
2023-05-19T19:17:36.176Z,25.70
2023-05-19T19:20:04.185Z,25.80
2023-05-19T19:22:32.264Z,25.90
2023-05-19T19:25:00.610Z,25.80
2023-05-19T19:27:31.378Z,26.00
2023-05-19T19:29:59.605Z,26.20
2023-05-19T19:32:27.709Z,26.50
2023-05-19T19:34:55.743Z,26.60
2023-05-19T19:37:23.738Z,26.80
2023-05-19T19:39:51.700Z,26.80
2023-05-19T19:42:19.734Z,26.80
2023-05-19T19:44:49.141Z,26.90
2023-05-19T19:47:17.109Z,26.90
2023-05-19T19:49:45.792Z,26.80
2023-05-19T19:52:13.751Z,26.80
2023-05-19T19:54:41.732Z,26.80
2023-05-19T19:57:09.641Z,26.80
2023-05-19T19:59:38.236Z,26.70
2023-05-19T20:02:07.895Z,26.80
2023-05-19T20:04:36.197Z,26.70
2023-05-19T20:07:04.399Z,26.70
2023-05-19T20:09:32.362Z,26.70
2023-05-19T20:12:00.314Z,26.60
2023-05-19T20:14:28.294Z,26.60
2023-05-19T20:16:56.435Z,26.60
2023-05-19T20:19:26.816Z,26.60
2023-05-19T20:21:54.763Z,26.60
2023-05-19T20:24:22.707Z,26.50
2023-05-19T20:26:50.845Z,26.50
2023-05-19T20:29:19.011Z,26.50
2023-05-19T20:31:47.116Z,26.50
2023-05-19T20:34:15.171Z,26.40
2023-05-19T20:36:44.730Z,26.40
2023-05-19T20:39:12.876Z,26.40
2023-05-19T20:41:41.238Z,26.40
2023-05-19T20:44:10.358Z,26.30
2023-05-19T20:46:38.420Z,26.30
2023-05-19T20:49:06.433Z,26.30
2023-05-19T20:51:34.448Z,26.20
2023-05-19T20:54:05.256Z,26.20
2023-05-19T20:56:33.952Z,26.20
2023-05-19T20:59:01.912Z,26.20
2023-05-19T21:01:30.711Z,26.20
2023-05-19T21:03:58.596Z,26.10
2023-05-19T21:06:26.513Z,26.10
2023-05-19T21:08:54.446Z,26.10
2023-05-19T21:11:23.947Z,26.10
2023-05-19T21:13:52.114Z,26.00
2023-05-19T21:16:20.122Z,26.00
2023-05-19T21:18:48.281Z,25.90
2023-05-19T21:21:16.650Z,25.90
2023-05-19T21:23:44.745Z,25.90
2023-05-19T21:26:12.656Z,25.90
2023-05-19T21:28:42.061Z,25.90
2023-05-19T21:31:10.038Z,25.90
2023-05-19T21:33:38.158Z,25.90
2023-05-19T21:36:06.937Z,25.80
2023-05-19T21:38:35.032Z,25.80
2023-05-19T21:41:03.365Z,25.80
2023-05-19T21:43:31.714Z,25.80
2023-05-19T21:46:01.440Z,25.70
2023-05-19T21:48:29.463Z,25.70
2023-05-19T21:50:57.971Z,25.70
2023-05-19T21:53:26.039Z,25.70
2023-05-19T21:55:54.177Z,25.70
2023-05-19T21:58:23.229Z,25.60
2023-05-19T22:00:51.259Z,25.60
2023-05-19T22:03:21.306Z,25.60
2023-05-19T22:05:50.174Z,25.60
2023-05-19T22:08:18.624Z,25.60
2023-05-19T22:10:46.595Z,25.50
2023-05-19T22:13:14.619Z,25.50
2023-05-19T22:15:42.610Z,25.50
2023-05-19T22:18:11.763Z,25.50
2023-05-19T22:20:41.677Z,25.40
2023-05-19T22:23:09.925Z,25.40
2023-05-19T22:25:37.697Z,25.40
2023-05-19T22:28:08.417Z,25.40
2023-05-19T22:30:40.051Z,25.40
2023-05-19T22:33:09.341Z,25.30
2023-05-19T22:35:37.265Z,25.30
2023-05-19T22:38:08.909Z,25.30
2023-05-19T22:40:38.478Z,25.30
2023-05-19T22:43:06.491Z,25.30
2023-05-19T22:45:35.348Z,25.30
2023-05-19T22:48:03.622Z,25.20
2023-05-19T22:50:31.798Z,25.20
2023-05-19T22:52:59.842Z,25.20
2023-05-19T22:55:29.146Z,25.20
2023-05-19T22:57:57.252Z,25.20
2023-05-19T23:00:25.359Z,25.20
2023-05-19T23:02:53.373Z,25.10
2023-05-19T23:05:22.053Z,25.20
2023-05-19T23:07:50.062Z,25.10
2023-05-19T23:10:18.132Z,25.10
2023-05-19T23:12:47.650Z,25.10
2023-05-19T23:15:15.766Z,25.10
2023-05-19T23:17:43.721Z,25.10
2023-05-19T23:20:13.520Z,25.00
2023-05-19T23:22:41.848Z,25.00
2023-05-19T23:25:10.316Z,25.00
2023-05-19T23:27:38.051Z,25.00
2023-05-19T23:30:08.530Z,25.00
2023-05-19T23:32:36.293Z,25.00
2023-05-19T23:35:12.228Z,25.00
2023-05-19T23:37:40.067Z,24.90
2023-05-19T23:40:08.894Z,24.90
2023-05-19T23:42:37.288Z,24.90
2023-05-19T23:45:07.473Z,24.80
2023-05-19T23:47:37.162Z,24.80
2023-05-19T23:50:05.338Z,24.80
2023-05-19T23:52:33.567Z,24.80
2023-05-19T23:55:01.436Z,24.80
2023-05-19T23:57:29.808Z,24.80
2023-05-19T23:59:57.814Z,24.80
